Time;durP1;ratioP1;P1;durP2;ratioP2;P2;SDS_P1;SDS_P2;PMS_P1;PMS_P2;Temp;Humidity;BMP_temperature;BMP_pressure;BME280_temperature;BME280_humidity;BME280_pressure;Samples;Min_cycle;Max_cycle;Signal;HPM_P1;HPM_P2
2022/04/18 00:01:36;;;;;;;;;;;;;;;4.36;67.15;101176.09;4938202;29;1483;-87
2022/04/18 00:04:01;;;;;;;;;;;;;;;4.43;67.72;101169.56;4954249;28;1903;-87
2022/04/18 00:06:26;;;;;;;;;;;;;;;4.49;66.11;101168.69;4937861;29;1274;-87
2022/04/18 00:08:52;;;;;;;;;;;;;;;4.52;66.02;101154.66;4940426;29;1443;-88
2022/04/18 00:11:17;;;;;;;;;;;;;;;4.40;65.60;101156.47;4945842;28;1434;-87
2022/04/18 00:13:42;;;;;;;;;;;;;;;4.44;66.29;101149.53;4931687;29;1491;-87
2022/04/18 00:16:07;;;;;;;;;;;;;;;4.43;66.30;101152.47;4921653;29;1332;-87
2022/04/18 00:18:33;;;;;;;;;;;;;;;4.83;65.80;101153.72;4931389;29;1490;-87
2022/04/18 00:20:58;;;;;;;;;;;;;;;4.90;65.48;101148.22;4926948;29;1305;-87
2022/04/18 00:23:23;;;;;;;;;;;;;;;4.77;64.94;101151.88;4920977;29;1895;-87
2022/04/18 00:25:48;;;;;;;;;;;;;;;4.75;65.95;101154.03;4921767;29;1385;-87
2022/04/18 00:28:15;;;;;;;;;;;;;;;4.64;65.80;101149.34;4927332;29;1459;-87
2022/04/18 00:30:40;;;;;;;;;;;;;;;4.55;65.84;101139.84;4929930;29;1538;-87
2022/04/18 00:33:08;;;;;;;;;;;;;;;4.48;66.60;101142.63;4948942;29;1506;-86
2022/04/18 00:35:34;;;;;;;;;;;;;;;4.51;66.24;101141.34;4940487;29;1491;-88
2022/04/18 00:37:59;;;;;;;;;;;;;;;4.55;66.64;101134.44;4956422;29;1237;-86
2022/04/18 00:40:24;;;;;;;;;;;;;;;4.40;66.58;101140.22;4956576;29;1374;-87
2022/04/18 00:42:50;;;;;;;;;;;;;;;4.15;66.08;101140.25;4955100;29;1894;-87
2022/04/18 00:45:15;;;;;;;;;;;;;;;4.12;67.16;101135.28;4955585;28;1672;-86
2022/04/18 00:47:40;;;;;;;;;;;;;;;3.87;67.68;101137.16;4924572;29;1368;-87
2022/04/18 00:50:06;;;;;;;;;;;;;;;3.59;69.32;101126.75;4927897;29;1463;-87
2022/04/18 00:52:32;;;;;;;;;;;;;;;3.72;69.17;101128.53;4921481;29;1487;-87
2022/04/18 00:54:59;;;;;;;;;;;;;;;3.94;68.09;101126.28;4920969;29;1322;-87
2022/04/18 00:57:25;;;;;;;;;;;;;;;3.59;68.33;101123.22;4929652;29;1402;-88
2022/04/18 00:59:50;;;;;;;;;;;;;;;3.65;68.90;101125.91;4923416;29;1507;-87
2022/04/18 01:02:17;;;;;;;;;;;;;;;3.79;68.31;101121.19;4921210;29;1202;-87
2022/04/18 01:04:42;;;;;;;;;;;;;;;3.77;67.21;101115.16;4936051;29;1487;-87
2022/04/18 01:07:09;;;;;;;;;;;;;;;3.58;67.86;101121.56;4948135;29;1347;-87
2022/04/18 01:09:35;;;;;;;;;;;;;;;3.39;69.02;101116.09;4955619;28;1185;-87
2022/04/18 01:12:00;;;;;;;;;;;;;;;3.57;68.67;101112.63;4956311;28;1200;-87
2022/04/18 01:14:25;;;;;;;;;;;;;;;3.59;68.85;101113.22;4955165;29;1162;-87
2022/04/18 01:16:50;;;;;;;;;;;;;;;3.77;68.35;101112.44;4939675;29;1501;-87
2022/04/18 01:19:17;;;;;;;;;;;;;;;3.88;68.76;101105.50;4943180;29;1446;-87
2022/04/18 01:21:42;;;;;;;;;;;;;;;4.01;68.19;101103.50;4938289;29;1458;-87
2022/04/18 01:29:37;;;;;;;;;;;;;;;3.82;68.63;101099.09;4938633;29;1482;-87
2022/04/18 01:32:03;;;;;;;;;;;;;;;3.89;68.54;101091.75;4954990;29;1521;-88
2022/04/18 01:34:28;;;;;;;;;;;;;;;3.78;67.84;101097.88;4938866;29;1463;-87
2022/04/18 01:36:53;;;;;;;;;;;;;;;3.62;68.70;101101.13;4951236;29;1560;-87
2022/04/18 01:39:18;;;;;;;;;;;;;;;3.45;68.35;101091.88;4949296;28;1414;-88
2022/04/18 01:41:43;;;;;;;;;;;;;;;3.50;69.70;101094.75;4920279;29;1313;-87
2022/04/18 01:44:08;;;;;;;;;;;;;;;3.74;69.20;101085.84;4920044;29;1964;-87
2022/04/18 01:46:34;;;;;;;;;;;;;;;3.58;68.84;101094.47;4919839;29;1238;-87
2022/04/18 01:48:59;;;;;;;;;;;;;;;3.52;69.24;101087.25;4937746;29;1443;-87
2022/04/18 01:51:24;;;;;;;;;;;;;;;3.49;68.84;101088.50;4955192;28;1262;-87
2022/04/18 01:53:49;;;;;;;;;;;;;;;3.48;68.75;101091.47;4938002;29;1561;-87
2022/04/18 01:56:14;;;;;;;;;;;;;;;3.48;68.41;101088.75;4938096;29;1569;-87
2022/04/18 01:58:40;;;;;;;;;;;;;;;3.51;68.60;101085.59;4939328;29;1672;-87
2022/04/18 02:01:06;;;;;;;;;;;;;;;3.43;68.74;101095.63;4940913;29;1339;-86
2022/04/18 02:03:31;;;;;;;;;;;;;;;3.29;68.45;101080.56;4954999;29;1977;-87
2022/04/18 02:05:57;;;;;;;;;;;;;;;2.97;70.28;101089.69;4946541;28;1525;-87
2022/04/18 02:08:23;;;;;;;;;;;;;;;3.04;70.70;101072.38;4930029;29;1538;-86
2022/04/18 02:10:48;;;;;;;;;;;;;;;2.95;70.89;101083.69;4927060;29;1291;-87
2022/04/18 02:13:13;;;;;;;;;;;;;;;3.14;70.46;101076.50;4922290;29;1555;-87
2022/04/18 02:15:39;;;;;;;;;;;;;;;3.20;69.37;101073.75;4919703;29;1222;-87
2022/04/18 02:18:04;;;;;;;;;;;;;;;2.76;70.43;101073.78;4949624;28;1820;-87
2022/04/18 02:20:29;;;;;;;;;;;;;;;3.02;70.25;101062.81;4949616;28;1422;-86
2022/04/18 02:22:55;;;;;;;;;;;;;;;2.95;69.26;101060.16;4919378;29;1879;-87
2022/04/18 02:25:20;;;;;;;;;;;;;;;2.81;70.29;101055.84;4928314;29;1490;-87
2022/04/18 02:27:45;;;;;;;;;;;;;;;2.93;70.10;101054.16;4930421;29;1550;-87
2022/04/18 02:30:11;;;;;;;;;;;;;;;2.82;70.71;101048.59;4929971;29;1287;-88
2022/04/18 02:32:48;;;;;;;;;;;;;;;2.60;70.94;101046.22;4954063;29;1347;-87
2022/04/18 02:35:17;;;;;;;;;;;;;;;2.76;71.05;101034.06;4928172;29;1487;-87
2022/04/18 02:37:43;;;;;;;;;;;;;;;2.75;70.70;101042.38;4925469;29;1597;-87
2022/04/18 02:40:08;;;;;;;;;;;;;;;2.82;70.82;101033.19;4933155;29;1502;-87
2022/04/18 02:42:33;;;;;;;;;;;;;;;2.89;70.44;101025.06;4947723;29;1957;-87
2022/04/18 02:44:58;;;;;;;;;;;;;;;2.94;70.43;101034.16;4952464;28;1294;-87
2022/04/18 02:47:25;;;;;;;;;;;;;;;3.03;70.73;101034.75;4942051;29;1452;-87
2022/04/18 02:49:50;;;;;;;;;;;;;;;2.96;69.93;101025.84;4936257;29;1283;-88
2022/04/18 02:52:16;;;;;;;;;;;;;;;2.91;70.18;101029.19;4938202;29;1352;-87
2022/04/18 02:54:42;;;;;;;;;;;;;;;2.98;70.33;101034.53;4929904;29;1368;-87
2022/04/18 02:57:07;;;;;;;;;;;;;;;3.08;70.20;101031.38;4924864;29;1352;-87
2022/04/18 02:59:32;;;;;;;;;;;;;;;3.13;70.12;101024.28;4954301;29;1695;-86
2022/04/18 03:01:57;;;;;;;;;;;;;;;2.89;70.53;101023.16;4955253;28;783;-87
2022/04/18 03:04:23;;;;;;;;;;;;;;;2.99;70.60;101023.53;4926861;29;1895;-88
2022/04/18 03:06:48;;;;;;;;;;;;;;;3.04;70.42;101017.47;4934620;29;1234;-88
2022/04/18 03:09:15;;;;;;;;;;;;;;;3.11;70.37;101018.25;4950012;29;1358;-87
2022/04/18 03:11:40;;;;;;;;;;;;;;;3.06;70.41;101020.78;4946316;29;1474;-87
2022/04/18 03:14:05;;;;;;;;;;;;;;;2.93;70.57;101020.88;4946581;28;1488;-88
2022/04/18 03:16:30;;;;;;;;;;;;;;;2.78;70.77;101010.34;4950452;29;1454;-87
2022/04/18 03:18:55;;;;;;;;;;;;;;;2.85;70.14;101010.31;4948386;29;1236;-88
2022/04/18 03:21:20;;;;;;;;;;;;;;;2.51;71.27;101009.66;4918577;29;1205;-88
2022/04/18 03:23:46;;;;;;;;;;;;;;;2.59;71.40;101000.47;4933826;29;1948;-87
2022/04/18 03:26:11;;;;;;;;;;;;;;;2.58;71.08;101005.06;4957023;28;1517;-87
2022/04/18 03:28:36;;;;;;;;;;;;;;;2.72;71.20;101007.69;4928744;29;1489;-87
2022/04/18 03:31:01;;;;;;;;;;;;;;;2.71;70.99;101003.34;4936662;29;1542;-87
2022/04/18 03:33:27;;;;;;;;;;;;;;;2.38;71.44;101006.22;4957568;29;1257;-87
2022/04/18 03:41:20;;;;;;;;;;;;;;;2.47;71.40;101000.31;4965386;28;1410;-87
2022/04/18 03:43:45;;;;;;;;;;;;;;;2.43;71.74;100996.41;4938257;29;1950;-87
2022/04/18 03:46:10;;;;;;;;;;;;;;;2.40;72.26;101004.09;4941039;29;1494;-88
2022/04/18 03:48:35;;;;;;;;;;;;;;;2.51;71.58;101006.97;4952376;29;1434;-88
2022/04/18 03:51:00;;;;;;;;;;;;;;;2.41;72.02;101005.75;4953885;28;1497;-87
2022/04/18 03:53:25;;;;;;;;;;;;;;;2.31;72.34;101008.91;4921950;29;1080;-87
2022/04/18 03:55:50;;;;;;;;;;;;;;;2.28;71.89;100995.84;4942725;23;1650;-86
2022/04/18 03:58:16;;;;;;;;;;;;;;;2.14;71.16;101003.16;4941879;29;1727;-86
2022/04/18 04:00:43;;;;;;;;;;;;;;;1.79;72.71;101008.03;4959073;28;1418;-86
2022/04/18 04:03:10;;;;;;;;;;;;;;;1.88;73.90;101014.03;4935781;29;1970;-87
2022/04/18 04:05:35;;;;;;;;;;;;;;;1.82;74.39;101015.72;4952613;29;1718;-87
2022/04/18 04:08:00;;;;;;;;;;;;;;;1.79;72.98;101013.41;4954591;29;1088;-86
2022/04/18 04:10:26;;;;;;;;;;;;;;;1.95;73.59;101008.63;4958376;29;1083;-87
2022/04/18 04:12:51;;;;;;;;;;;;;;;1.85;73.28;101007.19;4941316;29;1262;-86
2022/04/18 04:15:16;;;;;;;;;;;;;;;2.14;73.09;101007.72;4940224;29;1616;-87
2022/04/18 04:17:42;;;;;;;;;;;;;;;2.15;72.37;101007.53;4939281;29;1775;-87
2022/04/18 04:20:07;;;;;;;;;;;;;;;2.21;72.16;101001.25;4958053;28;1076;-87
2022/04/18 04:22:32;;;;;;;;;;;;;;;2.14;72.26;100999.63;4938035;29;1907;-87
2022/04/18 04:24:58;;;;;;;;;;;;;;;2.15;72.56;100999.41;4928938;29;1386;-87
2022/04/18 04:27:24;;;;;;;;;;;;;;;2.16;72.70;100998.38;4956653;28;1761;-87
2022/04/18 04:29:49;;;;;;;;;;;;;;;2.24;72.34;101003.53;4940966;29;1335;-87
2022/04/18 04:32:14;;;;;;;;;;;;;;;2.13;72.18;101003.38;4930476;29;1471;-87
2022/04/18 04:34:41;;;;;;;;;;;;;;;1.91;73.41;101000.13;4938243;29;759;-87
2022/04/18 04:37:06;;;;;;;;;;;;;;;1.76;73.53;101003.06;4932507;29;1720;-87
2022/04/18 04:39:31;;;;;;;;;;;;;;;2.06;73.47;100989.06;4921833;29;825;-87
2022/04/18 04:41:57;;;;;;;;;;;;;;;1.94;72.42;100990.78;4938854;29;884;-87
2022/04/18 04:44:22;;;;;;;;;;;;;;;1.36;74.53;100990.66;4921572;29;1954;-87
2022/04/18 04:46:47;;;;;;;;;;;;;;;1.62;74.18;100996.00;4933069;29;1448;-87
2022/04/18 04:49:12;;;;;;;;;;;;;;;1.70;74.71;100986.91;4940879;29;1229;-86
2022/04/18 04:51:38;;;;;;;;;;;;;;;1.92;73.74;100988.28;4940654;29;1347;-87
2022/04/18 04:54:04;;;;;;;;;;;;;;;2.00;73.41;100984.53;4925659;29;1318;-87
2022/04/18 04:56:29;;;;;;;;;;;;;;;2.09;73.05;100988.66;4923981;29;1769;-87
2022/04/18 04:58:54;;;;;;;;;;;;;;;2.14;73.04;100988.81;4928506;29;1510;-86
2022/04/18 05:01:20;;;;;;;;;;;;;;;2.20;72.98;100990.69;4929899;29;1210;-87
2022/04/18 05:03:45;;;;;;;;;;;;;;;2.26;72.87;100998.75;4920867;29;1894;-87
2022/04/18 05:06:11;;;;;;;;;;;;;;;2.33;72.40;100995.19;4921692;29;1328;-86
2022/04/18 05:08:36;;;;;;;;;;;;;;;2.18;72.08;100984.66;4925441;29;1231;-87
2022/04/18 05:11:02;;;;;;;;;;;;;;;2.16;72.62;100992.16;4921156;29;1222;-86
2022/04/18 05:13:27;;;;;;;;;;;;;;;2.01;72.78;100986.19;4921096;29;1359;-87
2022/04/18 05:15:52;;;;;;;;;;;;;;;2.22;73.30;100993.97;4921247;29;1752;-87
2022/04/18 05:18:17;;;;;;;;;;;;;;;2.37;72.74;100991.03;4920932;29;1197;-87
2022/04/18 05:20:44;;;;;;;;;;;;;;;2.31;72.38;100986.47;4921093;29;1300;-87
2022/04/18 05:23:09;;;;;;;;;;;;;;;2.34;72.86;100992.28;4920611;29;1957;-87
2022/04/18 05:25:35;;;;;;;;;;;;;;;2.52;72.69;100986.19;4937638;29;1682;-87
2022/04/18 05:28:00;;;;;;;;;;;;;;;2.61;72.28;100987.59;4930472;29;1574;-87
2022/04/18 05:30:25;;;;;;;;;;;;;;;2.59;72.09;100982.38;4939889;29;1375;-87
2022/04/18 05:32:50;;;;;;;;;;;;;;;2.58;72.09;100986.13;4939830;29;1204;-87
2022/04/18 05:35:15;;;;;;;;;;;;;;;2.55;72.44;100977.66;4928356;29;1747;-86
2022/04/18 05:37:41;;;;;;;;;;;;;;;2.61;73.37;100993.00;4924893;29;1222;-87
2022/04/18 05:40:06;;;;;;;;;;;;;;;2.82;72.96;100995.34;4933109;29;1417;-87
2022/04/18 05:42:31;;;;;;;;;;;;;;;3.13;72.99;100988.28;4953461;28;1964;-86
2022/04/18 05:44:56;;;;;;;;;;;;;;;3.26;72.86;100990.88;4928692;29;1331;-87
2022/04/18 05:47:21;;;;;;;;;;;;;;;3.26;73.03;100993.56;4939864;29;1214;-87
2022/04/18 05:49:47;;;;;;;;;;;;;;;3.25;73.60;100990.03;4924118;29;1529;-87
2022/04/18 05:52:15;;;;;;;;;;;;;;;3.25;73.13;100987.34;4932332;29;2015;-86
2022/04/18 05:54:40;;;;;;;;;;;;;;;3.28;72.46;100989.63;4933245;29;1564;-87
2022/04/18 05:57:06;;;;;;;;;;;;;;;3.38;72.70;100989.13;4937242;29;1487;-87
2022/04/18 05:59:32;;;;;;;;;;;;;;;3.50;72.79;100998.16;4920569;29;1245;-87
2022/04/18 06:01:57;;;;;;;;;;;;;;;3.57;73.86;100998.13;4920562;29;1273;-87
2022/04/18 06:04:22;;;;;;;;;;;;;;;3.62;74.09;100999.09;4927937;29;1894;-87
2022/04/18 06:06:47;;;;;;;;;;;;;;;3.68;74.55;100997.38;4939168;29;1430;-87
2022/04/18 06:09:13;;;;;;;;;;;;;;;3.73;74.76;100997.53;4939312;29;1193;-87
2022/04/18 06:11:38;;;;;;;;;;;;;;;3.89;75.33;101004.25;4931620;29;1314;-87
2022/04/18 06:14:03;;;;;;;;;;;;;;;4.04;73.78;100988.47;4936670;29;1459;-87
2022/04/18 06:16:28;;;;;;;;;;;;;;;4.10;73.45;100985.66;4919908;29;1218;-86
2022/04/18 06:18:53;;;;;;;;;;;;;;;4.25;73.26;100984.47;4920291;29;1288;-86
2022/04/18 06:21:18;;;;;;;;;;;;;;;4.44;71.84;100991.50;4955995;28;1498;-86
2022/04/18 06:23:43;;;;;;;;;;;;;;;4.49;70.68;100984.38;4948687;28;1947;-86
2022/04/18 06:26:09;;;;;;;;;;;;;;;4.63;70.22;100978.75;4936658;29;1510;-87
2022/04/18 06:28:34;;;;;;;;;;;;;;;4.72;69.29;100978.19;4920057;29;874;-86
2022/04/18 06:30:59;;;;;;;;;;;;;;;4.82;69.94;100980.38;4919890;29;949;-87
2022/04/18 06:33:24;;;;;;;;;;;;;;;4.88;68.97;100974.84;4919577;29;1534;-87
2022/04/18 06:35:49;;;;;;;;;;;;;;;4.99;68.57;100985.97;4947713;29;1409;-89
2022/04/18 06:38:14;;;;;;;;;;;;;;;5.04;68.15;100986.06;4923432;29;1902;-88
2022/04/18 06:40:40;;;;;;;;;;;;;;;5.11;67.81;100979.47;4919936;29;954;-87
2022/04/18 06:43:05;;;;;;;;;;;;;;;5.19;68.39;100981.06;4934470;29;1898;-88
2022/04/18 06:45:31;;;;;;;;;;;;;;;5.14;67.45;100973.59;4935650;29;1221;-88
2022/04/18 06:47:56;;;;;;;;;;;;;;;5.20;67.38;100978.09;4951358;29;1292;-87
2022/04/18 06:50:21;;;;;;;;;;;;;;;5.25;66.78;100978.22;4936482;29;1641;-86
2022/04/18 06:52:50;;;;;;;;;;;;;;;5.36;67.75;100978.47;4919083;29;1302;-86
2022/04/18 06:55:15;;;;;;;;;;;;;;;5.45;67.09;100975.16;4936286;29;1250;-87
2022/04/18 06:57:40;;;;;;;;;;;;;;;5.52;67.07;100973.19;4919438;29;1169;-87
2022/04/18 07:00:06;;;;;;;;;;;;;;;5.59;67.02;100981.22;4928422;29;1306;-87
2022/04/18 07:02:31;;;;;;;;;;;;;;;5.65;67.02;100978.38;4954229;28;1902;-87
2022/04/18 07:04:56;;;;;;;;;;;;;;;5.69;67.51;100976.84;4938324;29;1269;-87
2022/04/18 07:07:21;;;;;;;;;;;;;;;5.75;67.31;100979.66;4954351;28;1306;-87
2022/04/18 07:09:46;;;;;;;;;;;;;;;5.78;67.83;100980.03;4940398;28;1400;-86
2022/04/18 07:12:12;;;;;;;;;;;;;;;5.85;67.37;100985.34;4919371;29;1037;-86
2022/04/18 07:14:38;;;;;;;;;;;;;;;5.88;67.59;100982.16;4919237;29;1048;-87
2022/04/18 07:17:03;;;;;;;;;;;;;;;5.91;66.29;100978.97;4919240;29;1396;-86
2022/04/18 07:19:28;;;;;;;;;;;;;;;5.98;66.13;100985.09;4924035;29;1280;-87
2022/04/18 07:21:54;;;;;;;;;;;;;;;6.04;66.06;100981.41;4953917;29;1063;-86
2022/04/18 07:24:19;;;;;;;;;;;;;;;6.08;66.72;100979.91;4925076;29;1882;-86
2022/04/18 07:26:44;;;;;;;;;;;;;;;6.16;66.22;100979.53;4919268;29;1178;-86
2022/04/18 07:29:09;;;;;;;;;;;;;;;6.23;66.37;100980.22;4919283;29;1403;-87
2022/04/18 07:31:35;;;;;;;;;;;;;;;6.31;65.36;100979.00;4919158;29;974;-86
2022/04/18 07:34:00;;;;;;;;;;;;;;;6.36;66.05;100979.13;4931152;29;1354;-86
2022/04/18 07:36:25;;;;;;;;;;;;;;;6.45;65.88;100972.25;4956964;28;1264;-86
2022/04/18 07:38:50;;;;;;;;;;;;;;;6.53;65.91;100976.47;4939940;28;1459;-86
2022/04/18 07:41:26;;;;;;;;;;;;;;;6.57;65.58;100972.19;4938123;29;1245;-85
2022/04/18 07:43:52;;;;;;;;;;;;;;;6.65;66.22;100960.91;4938563;29;1928;-85
2022/04/18 07:46:17;;;;;;;;;;;;;;;6.75;65.62;100964.66;4937988;29;1283;-86
2022/04/18 07:48:44;;;;;;;;;;;;;;;6.81;65.59;100963.66;4926404;29;1218;-86
2022/04/18 07:53:53;;;;;;;;;;;;;;;6.96;65.39;100965.03;4955304;29;1077;-87
2022/04/18 07:56:20;;;;;;;;;;;;;;;7.01;64.82;100968.66;4929822;29;1277;-86
2022/04/18 07:58:45;;;;;;;;;;;;;;;7.09;63.82;100965.53;4919747;29;1523;-86
2022/04/18 08:01:10;;;;;;;;;;;;;;;7.17;64.20;100978.75;4919631;29;1435;-86
2022/04/18 08:03:36;;;;;;;;;;;;;;;7.25;63.86;100968.50;4919893;29;1907;-86
2022/04/18 08:06:01;;;;;;;;;;;;;;;7.29;63.63;100965.06;4918765;29;1313;-86
2022/04/18 08:08:27;;;;;;;;;;;;;;;7.34;63.55;100959.69;4936167;29;1227;-86
2022/04/18 08:10:52;;;;;;;;;;;;;;;7.39;63.00;100961.69;4922086;29;1207;-86
2022/04/18 08:13:17;;;;;;;;;;;;;;;7.49;62.51;100959.09;4929215;29;1296;-86
2022/04/18 08:15:43;;;;;;;;;;;;;;;7.55;62.12;100969.00;4955387;29;1264;-86
2022/04/18 08:18:08;;;;;;;;;;;;;;;7.60;62.33;100959.00;4950176;29;1429;-86
2022/04/18 08:20:33;;;;;;;;;;;;;;;7.69;62.23;100958.59;4958100;28;1170;-86
2022/04/18 08:22:58;;;;;;;;;;;;;;;7.80;62.17;100950.31;4942408;28;1902;-86
2022/04/18 08:25:24;;;;;;;;;;;;;;;7.87;61.58;100955.56;4944639;29;1337;-87
2022/04/18 08:27:49;;;;;;;;;;;;;;;7.92;61.97;100959.19;4948168;29;1341;-86
2022/04/18 08:30:14;;;;;;;;;;;;;;;7.98;61.28;100952.75;4954324;28;1221;-86
2022/04/18 08:32:40;;;;;;;;;;;;;;;8.07;61.54;100955.03;4924188;29;1572;-87
2022/04/18 08:35:05;;;;;;;;;;;;;;;8.18;61.18;100948.63;4921428;29;1413;-86
2022/04/18 08:37:31;;;;;;;;;;;;;;;8.24;61.01;100950.34;4921872;29;1190;-86
2022/04/18 08:39:56;;;;;;;;;;;;;;;8.25;60.85;100941.88;4936305;29;1291;-85
2022/04/18 08:42:22;;;;;;;;;;;;;;;8.34;61.33;100947.75;4949824;28;1237;-86
2022/04/18 08:44:49;;;;;;;;;;;;;;;8.42;60.48;100932.88;4930750;29;1960;-86
2022/04/18 08:52:43;;;;;;;;;;;;;;;8.52;61.45;100939.22;4936113;29;1498;-86
2022/04/18 08:52:45;;;;;;;;;;;;;;;8.61;60.00;100929.50;4939193;29;1030;-86
2022/04/18 08:55:10;;;;;;;;;;;;;;;8.65;59.48;100921.66;4937869;29;1368;-86
2022/04/18 08:57:36;;;;;;;;;;;;;;;8.76;59.54;100919.84;4950922;29;1285;-86
2022/04/18 09:00:01;;;;;;;;;;;;;;;8.87;57.37;100914.22;4926604;29;1261;-87
2022/04/18 09:02:27;;;;;;;;;;;;;;;9.04;56.23;100923.09;4943907;29;1216;-86
2022/04/18 09:04:53;;;;;;;;;;;;;;;9.13;56.55;100914.44;4936414;29;1899;-86
2022/04/18 09:07:18;;;;;;;;;;;;;;;9.15;55.49;100913.09;4956119;29;1433;-86
2022/04/18 09:09:43;;;;;;;;;;;;;;;9.18;53.99;100900.84;4940318;29;1237;-86
2022/04/18 09:12:19;;;;;;;;;;;;;;;9.32;52.98;100899.28;4957294;28;1336;-85
2022/04/18 09:14:48;;;;;;;;;;;;;;;9.46;51.23;100914.97;4933790;29;1328;-86
2022/04/18 09:17:25;;;;;;;;;;;;;;;9.45;52.11;100909.75;4921388;29;1219;-86
2022/04/18 09:20:02;;;;;;;;;;;;;;;9.41;52.87;100901.28;4938280;29;1254;-86
2022/04/18 09:22:27;;;;;;;;;;;;;;;9.45;53.65;100896.09;4939270;29;1274;-86
2022/04/18 09:24:54;;;;;;;;;;;;;;;9.51;51.97;100902.44;4949401;29;1891;-86
2022/04/18 09:27:31;;;;;;;;;;;;;;;9.54;52.18;100894.50;4925268;29;1598;-86
2022/04/18 09:30:03;;;;;;;;;;;;;;;9.80;50.31;100884.53;4948988;28;1347;-86
2022/04/18 09:32:28;;;;;;;;;;;;;;;10.00;50.14;100887.38;4926377;29;1295;-86
2022/04/18 09:35:04;;;;;;;;;;;;;;;10.08;49.26;100883.31;4946433;28;1147;-86
2022/04/18 09:37:29;;;;;;;;;;;;;;;10.17;48.24;100888.03;4937758;29;1351;-86
2022/04/18 09:39:55;;;;;;;;;;;;;;;9.99;48.67;100880.25;4936285;29;1624;-87
2022/04/18 09:42:22;;;;;;;;;;;;;;;9.92;49.34;100871.50;4956927;29;905;-86
2022/04/18 09:44:47;;;;;;;;;;;;;;;10.01;49.76;100869.06;4932679;29;1974;-86
2022/04/18 09:47:19;;;;;;;;;;;;;;;10.04;51.14;100863.88;4920427;29;1234;-86
2022/04/18 09:49:44;;;;;;;;;;;;;;;10.05;48.77;100867.41;4925638;29;1635;-85
2022/04/18 09:52:11;;;;;;;;;;;;;;;10.28;49.40;100864.25;4936193;29;1483;-86
2022/04/18 09:54:40;;;;;;;;;;;;;;;10.56;47.73;100854.72;4920989;29;1450;-86
2022/04/18 09:57:08;;;;;;;;;;;;;;;10.70;45.56;100852.28;4938111;29;1234;-86
2022/04/18 09:59:33;;;;;;;;;;;;;;;10.56;48.81;100850.06;4934112;29;1432;-87
2022/04/18 10:01:59;;;;;;;;;;;;;;;10.68;49.90;100846.25;4927944;29;1293;-87
2022/04/18 10:04:24;;;;;;;;;;;;;;;10.71;48.13;100841.06;4919795;29;1969;-87
2022/04/18 10:06:52;;;;;;;;;;;;;;;10.84;48.68;100837.78;4928906;29;1479;-87
2022/04/18 10:09:17;;;;;;;;;;;;;;;10.64;47.97;100843.22;4934354;29;1564;-87
2022/04/18 10:11:42;;;;;;;;;;;;;;;10.66;48.79;100834.75;4938654;29;1359;-86
2022/04/18 10:14:08;;;;;;;;;;;;;;;10.61;48.69;100838.31;4955894;29;890;-87
2022/04/18 10:16:33;;;;;;;;;;;;;;;10.74;50.51;100826.00;4956248;29;1312;-87
2022/04/18 10:19:01;;;;;;;;;;;;;;;10.74;50.52;100824.06;4935423;29;1356;-87
2022/04/18 10:21:27;;;;;;;;;;;;;;;10.77;50.94;100830.94;4955988;28;933;-86
2022/04/18 10:24:12;;;;;;;;;;;;;;;10.68;50.31;100814.22;4938641;29;1961;-87
2022/04/18 10:26:50;;;;;;;;;;;;;;;10.69;50.01;100815.88;4938562;29;1317;-86
2022/04/18 10:29:20;;;;;;;;;;;;;;;10.98;48.69;100813.38;4936866;29;1530;-86
2022/04/18 10:31:46;;;;;;;;;;;;;;;11.29;49.69;100811.44;4949368;28;1446;-87
2022/04/18 10:34:14;;;;;;;;;;;;;;;11.20;49.44;100813.09;4935723;29;1332;-86
2022/04/18 10:36:47;;;;;;;;;;;;;;;11.12;50.38;100811.75;4945939;29;1356;-87
2022/04/18 10:39:13;;;;;;;;;;;;;;;11.02;49.72;100802.72;4936536;29;1329;-87
2022/04/18 10:41:39;;;;;;;;;;;;;;;11.18;47.02;100801.59;4950629;28;1486;-86
2022/04/18 10:44:08;;;;;;;;;;;;;;;11.25;47.89;100799.38;4938118;29;1902;-87
2022/04/18 10:46:34;;;;;;;;;;;;;;;11.25;49.65;100794.72;4938174;29;1346;-87
2022/04/18 10:49:00;;;;;;;;;;;;;;;11.15;50.70;100783.78;4927733;29;1388;-86
2022/04/18 10:51:29;;;;;;;;;;;;;;;11.30;50.71;100796.63;4949918;28;1481;-87
2022/04/18 10:54:05;;;;;;;;;;;;;;;11.26;50.13;100781.84;4935994;29;1339;-88
2022/04/18 10:56:45;;;;;;;;;;;;;;;11.24;50.65;100782.09;4936148;29;1214;-87
2022/04/18 10:59:11;;;;;;;;;;;;;;;11.34;47.19;100770.31;4928493;29;1233;-87
2022/04/18 11:01:37;;;;;;;;;;;;;;;11.43;49.21;100774.13;4929100;29;1721;-87
2022/04/18 11:04:07;;;;;;;;;;;;;;;11.70;48.16;100769.06;4926277;29;1955;-86
2022/04/18 11:06:32;;;;;;;;;;;;;;;11.84;48.67;100768.47;4918822;29;1531;-86
2022/04/18 11:09:02;;;;;;;;;;;;;;;11.79;48.34;100771.25;4937202;29;1203;-86
2022/04/18 11:11:41;;;;;;;;;;;;;;;11.67;49.03;100766.88;4944947;28;1356;-87
2022/04/18 11:14:33;;;;;;;;;;;;;;;11.66;46.66;100767.16;4937203;29;1233;-87
2022/04/18 11:16:59;;;;;;;;;;;;;;;11.63;47.83;100760.34;4916990;29;1248;-86
2022/04/18 11:19:29;;;;;;;;;;;;;;;11.72;48.57;100761.38;4953033;28;1468;-88
2022/04/18 11:24:41;;;;;;;;;;;;;;;11.85;49.10;100754.47;4954398;28;1953;-86
2022/04/18 11:27:10;;;;;;;;;;;;;;;11.91;49.58;100744.31;4947560;29;1174;-86
2022/04/18 11:29:37;;;;;;;;;;;;;;;11.91;50.03;100747.84;4918971;29;1492;-88
2022/04/18 11:32:02;;;;;;;;;;;;;;;12.02;49.47;100745.88;4919109;29;1462;-87
2022/04/18 11:34:28;;;;;;;;;;;;;;;12.12;49.20;100751.31;4950975;29;1602;-88
2022/04/18 11:36:57;;;;;;;;;;;;;;;12.20;49.41;100749.88;4935870;29;1306;-88
2022/04/18 11:39:23;;;;;;;;;;;;;;;12.16;48.07;100743.34;4948609;28;1202;-87
2022/04/18 11:41:48;;;;;;;;;;;;;;;12.10;48.97;100734.31;4957130;28;1438;-86
2022/04/18 11:44:17;;;;;;;;;;;;;;;12.18;49.06;100730.13;4975363;28;1891;-87
2022/04/18 11:46:43;;;;;;;;;;;;;;;12.23;49.20;100724.63;4952568;29;1398;-86
2022/04/18 11:49:08;;;;;;;;;;;;;;;12.22;49.01;100731.22;4927829;29;1361;-87
2022/04/18 11:51:38;;;;;;;;;;;;;;;12.36;47.27;100724.78;4927786;29;1479;-86
2022/04/18 11:54:03;;;;;;;;;;;;;;;12.42;48.58;100728.28;4928588;29;1306;-87
2022/04/18 11:56:28;;;;;;;;;;;;;;;12.41;48.28;100724.75;4941274;29;1344;-87
2022/04/18 11:58:53;;;;;;;;;;;;;;;12.37;48.04;100722.84;4958258;28;670;-86
2022/04/18 12:06:49;;;;;;;;;;;;;;;12.54;44.98;100715.03;4939335;29;1246;-87
2022/04/18 12:09:15;;;;;;;;;;;;;;;12.60;46.16;100715.78;4935366;29;1439;-86
2022/04/18 12:11:41;;;;;;;;;;;;;;;12.93;44.66;100709.41;4957864;29;1378;-86
2022/04/18 12:14:07;;;;;;;;;;;;;;;12.92;45.73;100701.47;4941035;29;1206;-86
2022/04/18 12:16:36;;;;;;;;;;;;;;;12.93;46.37;100701.16;4941079;29;1565;-87
2022/04/18 12:19:01;;;;;;;;;;;;;;;12.95;45.63;100696.22;4937698;29;1242;-87
2022/04/18 12:21:26;;;;;;;;;;;;;;;12.96;45.07;100691.53;4938907;29;1346;-87
2022/04/18 12:23:53;;;;;;;;;;;;;;;13.02;43.81;100690.34;4921630;29;1902;-85
2022/04/18 12:26:18;;;;;;;;;;;;;;;12.92;42.15;100683.06;4938776;29;1198;-86
2022/04/18 12:28:44;;;;;;;;;;;;;;;13.01;40.23;100683.25;4921668;29;1378;-86
2022/04/18 12:31:10;;;;;;;;;;;;;;;13.01;42.39;100686.81;4925714;29;1410;-87
2022/04/18 12:33:44;;;;;;;;;;;;;;;13.13;42.37;100680.91;4953749;28;1409;-86
2022/04/18 12:36:21;;;;;;;;;;;;;;;13.23;39.30;100665.13;4928935;29;1266;-86
2022/04/18 12:38:47;;;;;;;;;;;;;;;13.43;38.49;100666.81;4940569;29;1296;-87
2022/04/18 12:41:12;;;;;;;;;;;;;;;13.40;38.78;100659.16;4952627;29;1222;-87
2022/04/18 12:43:38;;;;;;;;;;;;;;;13.46;41.17;100657.13;4939305;29;1902;-87
2022/04/18 12:46:10;;;;;;;;;;;;;;;13.49;40.35;100651.88;4940428;29;1328;-86
2022/04/18 12:48:36;;;;;;;;;;;;;;;13.59;41.05;100656.41;4940900;29;1371;-87
2022/04/18 12:51:03;;;;;;;;;;;;;;;13.59;38.91;100656.41;4939115;29;1415;-87
2022/04/18 12:53:46;;;;;;;;;;;;;;;13.77;39.46;100652.84;4954346;29;1245;-87
2022/04/18 12:56:13;;;;;;;;;;;;;;;13.91;38.60;100648.22;4930295;29;1354;-86
2022/04/18 12:58:39;;;;;;;;;;;;;;;14.08;40.31;100647.69;4930504;29;1274;-87
2022/04/18 13:01:05;;;;;;;;;;;;;;;14.17;40.88;100643.13;4938206;29;1531;-87
2022/04/18 13:03:39;;;;;;;;;;;;;;;14.20;39.73;100638.97;4937484;29;1895;-87
2022/04/18 13:06:04;;;;;;;;;;;;;;;14.33;39.10;100638.19;4943401;29;1389;-87
2022/04/18 13:08:29;;;;;;;;;;;;;;;14.51;39.06;100631.00;4938792;28;1648;-88
2022/04/18 13:10:55;;;;;;;;;;;;;;;14.80;35.45;100630.75;4938779;29;1413;-88
2022/04/18 13:13:20;;;;;;;;;;;;;;;14.88;35.82;100624.53;4946936;29;1064;-87
2022/04/18 13:15:46;;;;;;;;;;;;;;;15.17;31.53;100615.91;4962241;28;1386;-89